sensor_id;sensor_type;location;lat;lon;timestamp;P1;durP1;ratioP1;P2;durP2;ratioP2
78372;SDS011;67656;52.074;4.758;2023-04-25T00:04:36;5.43;;;1.80;;
78372;SDS011;67656;52.074;4.758;2023-04-25T00:09:37;8.83;;;1.83;;
78372;SDS011;67656;52.074;4.758;2023-04-25T00:14:37;8.54;;;1.84;;
78372;SDS011;67656;52.074;4.758;2023-04-25T00:19:37;8.40;;;2.00;;
78372;SDS011;67656;52.074;4.758;2023-04-25T00:24:37;7.38;;;1.80;;
78372;SDS011;67656;52.074;4.758;2023-04-25T00:29:38;7.57;;;2.20;;
78372;SDS011;67656;52.074;4.758;2023-04-25T00:34:38;10.48;;;2.20;;
78372;SDS011;67656;52.074;4.758;2023-04-25T00:39:38;11.13;;;2.00;;
78372;SDS011;67656;52.074;4.758;2023-04-25T00:44:39;9.97;;;2.07;;
78372;SDS011;67656;52.074;4.758;2023-04-25T00:49:39;10.20;;;2.00;;
78372;SDS011;67656;52.074;4.758;2023-04-25T00:54:40;8.77;;;1.97;;
78372;SDS011;67656;52.074;4.758;2023-04-25T00:59:40;8.80;;;1.80;;
78372;SDS011;67656;52.074;4.758;2023-04-25T01:04:45;11.47;;;2.07;;
78372;SDS011;67656;52.074;4.758;2023-04-25T01:09:47;6.67;;;1.60;;
78372;SDS011;67656;52.074;4.758;2023-04-25T01:14:48;7.57;;;2.03;;
78372;SDS011;67656;52.074;4.758;2023-04-25T01:19:49;9.33;;;2.00;;
78372;SDS011;67656;52.074;4.758;2023-04-25T01:24:50;11.10;;;2.40;;
78372;SDS011;67656;52.074;4.758;2023-04-25T01:29:50;13.73;;;1.87;;
78372;SDS011;67656;52.074;4.758;2023-04-25T01:34:51;11.00;;;1.60;;
78372;SDS011;67656;52.074;4.758;2023-04-25T01:39:53;10.07;;;1.53;;
78372;SDS011;67656;52.074;4.758;2023-04-25T01:44:53;8.17;;;1.43;;
78372;SDS011;67656;52.074;4.758;2023-04-25T01:49:54;3.97;;;1.50;;
78372;SDS011;67656;52.074;4.758;2023-04-25T01:54:55;8.73;;;1.77;;
78372;SDS011;67656;52.074;4.758;2023-04-25T01:59:58;5.03;;;1.57;;
78372;SDS011;67656;52.074;4.758;2023-04-25T02:10:14;7.70;;;1.50;;
78372;SDS011;67656;52.074;4.758;2023-04-25T02:15:27;7.20;;;1.87;;
78372;SDS011;67656;52.074;4.758;2023-04-25T02:20:32;10.87;;;2.37;;
78372;SDS011;67656;52.074;4.758;2023-04-25T02:25:32;5.13;;;1.73;;
78372;SDS011;67656;52.074;4.758;2023-04-25T02:30:32;7.63;;;1.50;;
78372;SDS011;67656;52.074;4.758;2023-04-25T02:35:33;6.10;;;1.50;;
78372;SDS011;67656;52.074;4.758;2023-04-25T02:40:33;9.37;;;1.80;;
78372;SDS011;67656;52.074;4.758;2023-04-25T02:45:34;6.13;;;2.10;;
78372;SDS011;67656;52.074;4.758;2023-04-25T02:50:34;10.67;;;2.07;;
78372;SDS011;67656;52.074;4.758;2023-04-25T02:55:35;4.93;;;1.50;;
78372;SDS011;67656;52.074;4.758;2023-04-25T03:00:37;7.87;;;1.47;;
78372;SDS011;67656;52.074;4.758;2023-04-25T03:05:37;7.63;;;1.70;;
78372;SDS011;67656;52.074;4.758;2023-04-25T03:10:38;11.07;;;1.50;;
78372;SDS011;67656;52.074;4.758;2023-04-25T03:15:41;14.93;;;1.70;;
78372;SDS011;67656;52.074;4.758;2023-04-25T03:20:41;7.03;;;1.10;;
78372;SDS011;67656;52.074;4.758;2023-04-25T03:25:43;5.80;;;1.40;;
78372;SDS011;67656;52.074;4.758;2023-04-25T03:30:43;7.90;;;1.13;;
78372;SDS011;67656;52.074;4.758;2023-04-25T03:35:44;7.03;;;1.20;;
78372;SDS011;67656;52.074;4.758;2023-04-25T03:40:45;6.40;;;1.20;;
78372;SDS011;67656;52.074;4.758;2023-04-25T03:45:59;5.35;;;1.02;;
78372;SDS011;67656;52.074;4.758;2023-04-25T03:51:00;4.17;;;1.43;;
78372;SDS011;67656;52.074;4.758;2023-04-25T03:56:02;8.03;;;1.53;;
78372;SDS011;67656;52.074;4.758;2023-04-25T04:01:05;6.63;;;1.10;;
78372;SDS011;67656;52.074;4.758;2023-04-25T04:06:06;8.17;;;1.23;;
78372;SDS011;67656;52.074;4.758;2023-04-25T04:11:11;8.30;;;1.37;;
78372;SDS011;67656;52.074;4.758;2023-04-25T04:16:11;5.60;;;1.27;;
78372;SDS011;67656;52.074;4.758;2023-04-25T04:21:13;6.60;;;1.27;;
78372;SDS011;67656;52.074;4.758;2023-04-25T04:26:15;12.87;;;1.60;;
78372;SDS011;67656;52.074;4.758;2023-04-25T04:31:43;6.73;;;1.17;;
78372;SDS011;67656;52.074;4.758;2023-04-25T04:36:45;2.63;;;1.00;;
78372;SDS011;67656;52.074;4.758;2023-04-25T04:41:45;6.67;;;0.90;;
78372;SDS011;67656;52.074;4.758;2023-04-25T04:47:00;5.00;;;0.90;;
78372;SDS011;67656;52.074;4.758;2023-04-25T04:52:08;3.47;;;1.03;;
78372;SDS011;67656;52.074;4.758;2023-04-25T04:57:26;6.33;;;1.10;;
78372;SDS011;67656;52.074;4.758;2023-04-25T05:02:34;6.20;;;0.97;;
78372;SDS011;67656;52.074;4.758;2023-04-25T05:07:45;7.17;;;1.33;;
78372;SDS011;67656;52.074;4.758;2023-04-25T05:13:24;3.63;;;1.00;;
78372;SDS011;67656;52.074;4.758;2023-04-25T05:18:24;3.53;;;0.83;;
78372;SDS011;67656;52.074;4.758;2023-04-25T05:23:39;3.50;;;1.27;;
78372;SDS011;67656;52.074;4.758;2023-04-25T05:28:59;3.93;;;1.03;;
78372;SDS011;67656;52.074;4.758;2023-04-25T05:34:28;3.43;;;1.00;;
78372;SDS011;67656;52.074;4.758;2023-04-25T05:39:35;6.23;;;0.90;;
78372;SDS011;67656;52.074;4.758;2023-04-25T05:44:49;4.90;;;0.95;;
78372;SDS011;67656;52.074;4.758;2023-04-25T05:50:10;5.20;;;1.20;;
78372;SDS011;67656;52.074;4.758;2023-04-25T05:55:42;4.10;;;1.40;;
78372;SDS011;67656;52.074;4.758;2023-04-25T06:00:54;2.73;;;0.90;;
78372;SDS011;67656;52.074;4.758;2023-04-25T06:05:54;3.63;;;0.80;;
78372;SDS011;67656;52.074;4.758;2023-04-25T06:10:55;7.93;;;1.00;;
78372;SDS011;67656;52.074;4.758;2023-04-25T06:15:56;3.47;;;1.03;;
78372;SDS011;67656;52.074;4.758;2023-04-25T06:20:57;4.70;;;1.10;;
78372;SDS011;67656;52.074;4.758;2023-04-25T06:25:58;7.43;;;1.10;;
78372;SDS011;67656;52.074;4.758;2023-04-25T06:31:00;3.00;;;1.03;;
78372;SDS011;67656;52.074;4.758;2023-04-25T06:36:01;5.33;;;1.40;;
78372;SDS011;67656;52.074;4.758;2023-04-25T06:41:02;6.47;;;1.00;;
78372;SDS011;67656;52.074;4.758;2023-04-25T06:46:06;5.28;;;0.90;;
78372;SDS011;67656;52.074;4.758;2023-04-25T06:51:13;8.53;;;1.10;;
78372;SDS011;67656;52.074;4.758;2023-04-25T06:56:13;4.13;;;0.80;;
78372;SDS011;67656;52.074;4.758;2023-04-25T07:01:28;5.23;;;1.00;;
78372;SDS011;67656;52.074;4.758;2023-04-25T07:06:30;3.17;;;0.73;;
78372;SDS011;67656;52.074;4.758;2023-04-25T07:11:30;4.05;;;1.27;;
78372;SDS011;67656;52.074;4.758;2023-04-25T07:16:31;3.35;;;0.60;;
78372;SDS011;67656;52.074;4.758;2023-04-25T07:21:33;4.50;;;0.82;;
78372;SDS011;67656;52.074;4.758;2023-04-25T07:26:36;4.37;;;0.63;;
78372;SDS011;67656;52.074;4.758;2023-04-25T07:31:54;5.50;;;0.98;;
78372;SDS011;67656;52.074;4.758;2023-04-25T07:36:56;2.03;;;0.65;;
78372;SDS011;67656;52.074;4.758;2023-04-25T07:41:58;5.47;;;0.80;;
78372;SDS011;67656;52.074;4.758;2023-04-25T07:47:02;2.92;;;1.17;;
78372;SDS011;67656;52.074;4.758;2023-04-25T07:52:04;4.00;;;0.65;;
78372;SDS011;67656;52.074;4.758;2023-04-25T07:57:06;4.00;;;0.50;;
78372;SDS011;67656;52.074;4.758;2023-04-25T08:02:07;3.22;;;0.57;;
78372;SDS011;67656;52.074;4.758;2023-04-25T08:07:08;3.50;;;0.50;;
78372;SDS011;67656;52.074;4.758;2023-04-25T08:12:28;3.88;;;0.70;;
78372;SDS011;67656;52.074;4.758;2023-04-25T08:17:30;5.80;;;0.63;;
78372;SDS011;67656;52.074;4.758;2023-04-25T08:22:30;4.95;;;0.75;;
78372;SDS011;67656;52.074;4.758;2023-04-25T08:27:47;5.22;;;0.75;;
78372;SDS011;67656;52.074;4.758;2023-04-25T08:32:49;2.50;;;0.60;;
78372;SDS011;67656;52.074;4.758;2023-04-25T08:38:08;4.00;;;0.65;;
78372;SDS011;67656;52.074;4.758;2023-04-25T08:43:09;1.50;;;0.63;;
78372;SDS011;67656;52.074;4.758;2023-04-25T08:48:15;3.25;;;0.50;;
78372;SDS011;67656;52.074;4.758;2023-04-25T08:53:17;4.95;;;0.63;;
78372;SDS011;67656;52.074;4.758;2023-04-25T08:58:28;8.13;;;1.23;;
78372;SDS011;67656;52.074;4.758;2023-04-25T09:03:29;3.88;;;1.17;;
78372;SDS011;67656;52.074;4.758;2023-04-25T09:08:30;4.72;;;0.68;;
78372;SDS011;67656;52.074;4.758;2023-04-25T09:13:31;4.05;;;0.80;;
78372;SDS011;67656;52.074;4.758;2023-04-25T09:18:57;1.17;;;0.52;;
78372;SDS011;67656;52.074;4.758;2023-04-25T09:23:58;4.07;;;0.65;;
78372;SDS011;67656;52.074;4.758;2023-04-25T09:29:05;3.90;;;1.08;;
78372;SDS011;67656;52.074;4.758;2023-04-25T09:34:07;2.40;;;0.30;;
78372;SDS011;67656;52.074;4.758;2023-04-25T09:39:16;3.45;;;0.43;;
78372;SDS011;67656;52.074;4.758;2023-04-25T09:44:23;1.67;;;0.30;;
78372;SDS011;67656;52.074;4.758;2023-04-25T09:49:26;2.65;;;0.50;;
78372;SDS011;67656;52.074;4.758;2023-04-25T09:54:37;1.90;;;0.70;;
78372;SDS011;67656;52.074;4.758;2023-04-25T09:59:45;4.63;;;0.70;;
78372;SDS011;67656;52.074;4.758;2023-04-25T10:04:50;5.25;;;0.60;;
78372;SDS011;67656;52.074;4.758;2023-04-25T10:09:59;5.47;;;0.80;;
78372;SDS011;67656;52.074;4.758;2023-04-25T10:15:01;7.53;;;0.70;;
78372;SDS011;67656;52.074;4.758;2023-04-25T10:20:04;3.97;;;0.90;;
78372;SDS011;67656;52.074;4.758;2023-04-25T10:25:06;2.05;;;0.47;;
78372;SDS011;67656;52.074;4.758;2023-04-25T10:30:08;3.40;;;0.80;;
78372;SDS011;67656;52.074;4.758;2023-04-25T10:40:15;4.82;;;0.80;;
78372;SDS011;67656;52.074;4.758;2023-04-25T10:45:22;2.60;;;0.70;;
78372;SDS011;67656;52.074;4.758;2023-04-25T10:50:25;2.95;;;0.73;;
78372;SDS011;67656;52.074;4.758;2023-04-25T10:55:52;5.75;;;1.00;;
78372;SDS011;67656;52.074;4.758;2023-04-25T11:00:56;3.15;;;0.50;;
78372;SDS011;67656;52.074;4.758;2023-04-25T11:05:57;2.63;;;0.50;;
78372;SDS011;67656;52.074;4.758;2023-04-25T11:11:01;3.03;;;0.47;;
78372;SDS011;67656;52.074;4.758;2023-04-25T11:16:02;5.20;;;0.70;;
78372;SDS011;67656;52.074;4.758;2023-04-25T11:21:15;3.78;;;0.60;;
78372;SDS011;67656;52.074;4.758;2023-04-25T11:26:53;6.20;;;0.93;;
78372;SDS011;67656;52.074;4.758;2023-04-25T11:32:06;1.75;;;0.50;;
78372;SDS011;67656;52.074;4.758;2023-04-25T11:37:14;3.42;;;0.55;;
78372;SDS011;67656;52.074;4.758;2023-04-25T11:42:15;4.32;;;0.60;;
78372;SDS011;67656;52.074;4.758;2023-04-25T11:47:18;2.72;;;0.52;;
78372;SDS011;67656;52.074;4.758;2023-04-25T11:52:18;6.28;;;0.80;;
78372;SDS011;67656;52.074;4.758;2023-04-25T11:57:19;3.08;;;0.54;;
78372;SDS011;67656;52.074;4.758;2023-04-25T12:02:25;5.35;;;0.68;;
78372;SDS011;67656;52.074;4.758;2023-04-25T12:07:29;3.50;;;0.50;;
78372;SDS011;67656;52.074;4.758;2023-04-25T12:12:33;1.30;;;0.50;;
78372;SDS011;67656;52.074;4.758;2023-04-25T12:17:34;3.83;;;0.65;;
78372;SDS011;67656;52.074;4.758;2023-04-25T12:22:34;3.33;;;0.70;;
78372;SDS011;67656;52.074;4.758;2023-04-25T12:27:35;3.08;;;0.63;;
78372;SDS011;67656;52.074;4.758;2023-04-25T12:32:35;4.80;;;0.70;;
78372;SDS011;67656;52.074;4.758;2023-04-25T12:37:36;2.25;;;0.50;;
78372;SDS011;67656;52.074;4.758;2023-04-25T12:42:36;2.83;;;0.68;;
78372;SDS011;67656;52.074;4.758;2023-04-25T12:47:37;3.45;;;0.73;;
78372;SDS011;67656;52.074;4.758;2023-04-25T12:52:37;4.00;;;0.80;;
78372;SDS011;67656;52.074;4.758;2023-04-25T12:57:37;4.32;;;1.40;;
78372;SDS011;67656;52.074;4.758;2023-04-25T13:02:38;5.68;;;0.77;;
78372;SDS011;67656;52.074;4.758;2023-04-25T13:07:38;2.42;;;0.82;;
78372;SDS011;67656;52.074;4.758;2023-04-25T13:12:39;6.05;;;0.80;;
78372;SDS011;67656;52.074;4.758;2023-04-25T13:17:42;3.55;;;0.85;;
78372;SDS011;67656;52.074;4.758;2023-04-25T13:22:42;4.37;;;0.80;;
78372;SDS011;67656;52.074;4.758;2023-04-25T13:27:43;4.40;;;1.10;;
78372;SDS011;67656;52.074;4.758;2023-04-25T13:32:43;5.43;;;1.20;;
78372;SDS011;67656;52.074;4.758;2023-04-25T13:37:44;3.25;;;1.02;;
78372;SDS011;67656;52.074;4.758;2023-04-25T13:42:44;3.80;;;0.95;;
78372;SDS011;67656;52.074;4.758;2023-04-25T13:47:44;6.28;;;1.00;;
78372;SDS011;67656;52.074;4.758;2023-04-25T13:52:45;2.83;;;0.93;;
78372;SDS011;67656;52.074;4.758;2023-04-25T13:57:45;3.42;;;0.70;;
78372;SDS011;67656;52.074;4.758;2023-04-25T14:02:45;3.30;;;0.73;;
78372;SDS011;67656;52.074;4.758;2023-04-25T14:07:46;1.27;;;0.70;;
78372;SDS011;67656;52.074;4.758;2023-04-25T14:12:46;5.03;;;0.75;;
78372;SDS011;67656;52.074;4.758;2023-04-25T14:17:46;3.95;;;0.90;;
78372;SDS011;67656;52.074;4.758;2023-04-25T14:22:47;4.80;;;1.38;;
78372;SDS011;67656;52.074;4.758;2023-04-25T14:27:47;4.78;;;0.88;;
78372;SDS011;67656;52.074;4.758;2023-04-25T14:32:48;3.70;;;0.63;;
78372;SDS011;67656;52.074;4.758;2023-04-25T14:37:49;2.95;;;0.70;;
78372;SDS011;67656;52.074;4.758;2023-04-25T14:42:49;3.10;;;0.66;;
78372;SDS011;67656;52.074;4.758;2023-04-25T14:47:52;3.53;;;0.80;;
78372;SDS011;67656;52.074;4.758;2023-04-25T14:52:54;1.40;;;0.70;;
78372;SDS011;67656;52.074;4.758;2023-04-25T14:57:57;3.15;;;0.70;;
78372;SDS011;67656;52.074;4.758;2023-04-25T15:02:57;4.43;;;0.90;;
78372;SDS011;67656;52.074;4.758;2023-04-25T15:08:05;4.68;;;0.90;;
78372;SDS011;67656;52.074;4.758;2023-04-25T15:13:06;3.40;;;0.80;;
78372;SDS011;67656;52.074;4.758;2023-04-25T15:18:09;2.00;;;0.80;;
78372;SDS011;67656;52.074;4.758;2023-04-25T15:23:09;4.03;;;1.17;;
78372;SDS011;67656;52.074;4.758;2023-04-25T15:28:09;2.70;;;1.35;;
78372;SDS011;67656;52.074;4.758;2023-04-25T15:33:10;5.13;;;0.95;;
78372;SDS011;67656;52.074;4.758;2023-04-25T15:38:10;5.80;;;0.90;;
78372;SDS011;67656;52.074;4.758;2023-04-25T15:43:10;6.13;;;2.70;;
78372;SDS011;67656;52.074;4.758;2023-04-25T15:48:21;3.42;;;1.85;;
78372;SDS011;67656;52.074;4.758;2023-04-25T15:53:21;2.67;;;1.02;;
78372;SDS011;67656;52.074;4.758;2023-04-25T15:58:22;3.97;;;1.80;;
78372;SDS011;67656;52.074;4.758;2023-04-25T16:03:22;7.94;;;1.38;;
78372;SDS011;67656;52.074;4.758;2023-04-25T16:08:22;6.47;;;2.38;;
78372;SDS011;67656;52.074;4.758;2023-04-25T16:13:23;5.28;;;2.22;;
78372;SDS011;67656;52.074;4.758;2023-04-25T16:18:23;4.68;;;1.45;;
78372;SDS011;67656;52.074;4.758;2023-04-25T16:23:23;3.47;;;1.60;;
78372;SDS011;67656;52.074;4.758;2023-04-25T16:28:24;4.55;;;1.77;;
78372;SDS011;67656;52.074;4.758;2023-04-25T16:33:24;6.22;;;3.33;;
78372;SDS011;67656;52.074;4.758;2023-04-25T16:38:24;3.80;;;1.20;;
78372;SDS011;67656;52.074;4.758;2023-04-25T16:43:25;6.32;;;2.67;;
78372;SDS011;67656;52.074;4.758;2023-04-25T16:48:25;4.38;;;0.80;;
78372;SDS011;67656;52.074;4.758;2023-04-25T16:53:28;3.67;;;0.95;;
78372;SDS011;67656;52.074;4.758;2023-04-25T16:58:28;4.75;;;0.93;;
78372;SDS011;67656;52.074;4.758;2023-04-25T17:03:29;15.27;;;5.72;;
78372;SDS011;67656;52.074;4.758;2023-04-25T17:08:29;4.00;;;2.17;;
78372;SDS011;67656;52.074;4.758;2023-04-25T17:13:33;3.67;;;1.77;;
78372;SDS011;67656;52.074;4.758;2023-04-25T17:18:33;4.97;;;3.20;;
78372;SDS011;67656;52.074;4.758;2023-04-25T17:23:34;5.00;;;1.88;;
78372;SDS011;67656;52.074;4.758;2023-04-25T17:28:34;3.17;;;1.30;;
78372;SDS011;67656;52.074;4.758;2023-04-25T17:33:34;4.68;;;1.65;;
78372;SDS011;67656;52.074;4.758;2023-04-25T17:38:36;4.70;;;1.30;;
78372;SDS011;67656;52.074;4.758;2023-04-25T17:43:36;7.35;;;2.03;;
78372;SDS011;67656;52.074;4.758;2023-04-25T17:48:39;4.65;;;1.63;;
78372;SDS011;67656;52.074;4.758;2023-04-25T17:53:39;5.63;;;1.40;;
78372;SDS011;67656;52.074;4.758;2023-04-25T17:58:40;4.10;;;0.90;;
78372;SDS011;67656;52.074;4.758;2023-04-25T18:03:40;5.80;;;1.20;;
78372;SDS011;67656;52.074;4.758;2023-04-25T18:08:43;3.00;;;1.20;;
78372;SDS011;67656;52.074;4.758;2023-04-25T18:13:43;6.50;;;1.40;;
78372;SDS011;67656;52.074;4.758;2023-04-25T18:18:43;1.80;;;1.13;;
78372;SDS011;67656;52.074;4.758;2023-04-25T18:23:46;7.50;;;1.60;;
78372;SDS011;67656;52.074;4.758;2023-04-25T18:28:46;3.80;;;1.57;;
78372;SDS011;67656;52.074;4.758;2023-04-25T18:33:47;4.85;;;1.70;;
78372;SDS011;67656;52.074;4.758;2023-04-25T18:38:47;4.93;;;1.67;;
78372;SDS011;67656;52.074;4.758;2023-04-25T18:43:47;38.87;;;12.47;;
78372;SDS011;67656;52.074;4.758;2023-04-25T18:48:48;53.26;;;14.16;;
78372;SDS011;67656;52.074;4.758;2023-04-25T18:53:48;51.73;;;14.33;;
78372;SDS011;67656;52.074;4.758;2023-04-25T18:58:49;10.80;;;2.93;;
78372;SDS011;67656;52.074;4.758;2023-04-25T19:03:50;40.40;;;13.53;;
78372;SDS011;67656;52.074;4.758;2023-04-25T19:08:50;19.77;;;6.80;;
78372;SDS011;67656;52.074;4.758;2023-04-25T19:13:51;49.87;;;17.03;;
78372;SDS011;67656;52.074;4.758;2023-04-25T19:18:52;27.10;;;7.80;;
78372;SDS011;67656;52.074;4.758;2023-04-25T19:23:53;41.90;;;11.73;;
78372;SDS011;67656;52.074;4.758;2023-04-25T19:29:08;64.30;;;19.50;;
78372;SDS011;67656;52.074;4.758;2023-04-25T19:34:10;19.90;;;7.57;;
78372;SDS011;67656;52.074;4.758;2023-04-25T19:39:11;43.63;;;13.10;;
78372;SDS011;67656;52.074;4.758;2023-04-25T19:44:11;13.03;;;4.27;;
78372;SDS011;67656;52.074;4.758;2023-04-25T19:49:11;7.30;;;2.47;;
78372;SDS011;67656;52.074;4.758;2023-04-25T19:54:12;11.93;;;4.00;;
78372;SDS011;67656;52.074;4.758;2023-04-25T19:59:12;8.98;;;2.47;;
78372;SDS011;67656;52.074;4.758;2023-04-25T20:04:16;13.93;;;3.77;;
78372;SDS011;67656;52.074;4.758;2023-04-25T20:09:17;12.60;;;4.00;;
78372;SDS011;67656;52.074;4.758;2023-04-25T20:14:17;16.33;;;3.83;;
78372;SDS011;67656;52.074;4.758;2023-04-25T20:19:18;12.10;;;3.77;;
78372;SDS011;67656;52.074;4.758;2023-04-25T20:24:18;9.90;;;2.87;;
78372;SDS011;67656;52.074;4.758;2023-04-25T20:29:19;9.33;;;2.37;;
78372;SDS011;67656;52.074;4.758;2023-04-25T20:34:19;8.75;;;2.45;;
78372;SDS011;67656;52.074;4.758;2023-04-25T20:39:20;9.40;;;3.00;;
78372;SDS011;67656;52.074;4.758;2023-04-25T20:44:20;5.83;;;2.30;;
78372;SDS011;67656;52.074;4.758;2023-04-25T20:49:23;8.30;;;2.83;;
78372;SDS011;67656;52.074;4.758;2023-04-25T20:54:23;9.73;;;3.10;;
78372;SDS011;67656;52.074;4.758;2023-04-25T20:59:24;5.97;;;2.53;;
78372;SDS011;67656;52.074;4.758;2023-04-25T21:04:25;7.07;;;2.63;;
78372;SDS011;67656;52.074;4.758;2023-04-25T21:09:26;4.80;;;1.93;;
78372;SDS011;67656;52.074;4.758;2023-04-25T21:14:26;8.93;;;2.13;;
78372;SDS011;67656;52.074;4.758;2023-04-25T21:19:26;6.75;;;2.35;;
78372;SDS011;67656;52.074;4.758;2023-04-25T21:24:27;8.70;;;2.23;;
78372;SDS011;67656;52.074;4.758;2023-04-25T21:29:27;9.93;;;2.20;;
78372;SDS011;67656;52.074;4.758;2023-04-25T21:34:27;6.83;;;2.00;;
78372;SDS011;67656;52.074;4.758;2023-04-25T21:39:28;9.02;;;2.60;;
78372;SDS011;67656;52.074;4.758;2023-04-25T21:44:28;10.65;;;2.50;;
78372;SDS011;67656;52.074;4.758;2023-04-25T21:49:28;9.60;;;2.42;;
78372;SDS011;67656;52.074;4.758;2023-04-25T21:54:29;6.73;;;2.10;;
78372;SDS011;67656;52.074;4.758;2023-04-25T21:59:30;6.50;;;2.60;;
78372;SDS011;67656;52.074;4.758;2023-04-25T22:04:30;5.47;;;2.27;;
78372;SDS011;67656;52.074;4.758;2023-04-25T22:09:30;8.27;;;2.27;;
78372;SDS011;67656;52.074;4.758;2023-04-25T22:14:31;10.83;;;2.70;;
78372;SDS011;67656;52.074;4.758;2023-04-25T22:19:32;15.33;;;5.00;;
78372;SDS011;67656;52.074;4.758;2023-04-25T22:24:32;9.87;;;3.67;;
78372;SDS011;67656;52.074;4.758;2023-04-25T22:29:32;9.30;;;3.07;;
78372;SDS011;67656;52.074;4.758;2023-04-25T22:34:33;10.57;;;2.93;;
78372;SDS011;67656;52.074;4.758;2023-04-25T22:39:33;9.00;;;3.07;;
78372;SDS011;67656;52.074;4.758;2023-04-25T22:44:33;8.80;;;2.73;;
78372;SDS011;67656;52.074;4.758;2023-04-25T22:49:34;8.07;;;2.70;;
78372;SDS011;67656;52.074;4.758;2023-04-25T22:54:34;7.03;;;2.23;;
78372;SDS011;67656;52.074;4.758;2023-04-25T22:59:35;5.23;;;2.17;;
78372;SDS011;67656;52.074;4.758;2023-04-25T23:04:35;10.43;;;2.13;;
78372;SDS011;67656;52.074;4.758;2023-04-25T23:09:36;8.77;;;2.13;;
78372;SDS011;67656;52.074;4.758;2023-04-25T23:14:36;11.77;;;3.10;;
78372;SDS011;67656;52.074;4.758;2023-04-25T23:19:37;6.67;;;2.53;;
78372;SDS011;67656;52.074;4.758;2023-04-25T23:24:37;7.17;;;2.10;;
78372;SDS011;67656;52.074;4.758;2023-04-25T23:29:37;4.82;;;1.98;;
78372;SDS011;67656;52.074;4.758;2023-04-25T23:34:37;9.13;;;2.60;;
78372;SDS011;67656;52.074;4.758;2023-04-25T23:39:45;7.23;;;2.33;;
78372;SDS011;67656;52.074;4.758;2023-04-25T23:44:46;7.93;;;2.53;;
78372;SDS011;67656;52.074;4.758;2023-04-25T23:49:46;8.13;;;2.20;;
78372;SDS011;67656;52.074;4.758;2023-04-25T23:54:47;7.60;;;2.30;;
78372;SDS011;67656;52.074;4.758;2023-04-25T23:59:47;9.38;;;2.40;;
